createdAt,value
2019-03-29T00:01:40.997Z,55.30
2019-03-29T00:04:09.403Z,57.33
2019-03-29T00:06:37.804Z,55.37
2019-03-29T00:09:07.891Z,57.00
2019-03-29T00:11:37.029Z,56.83
2019-03-29T00:14:05.427Z,58.53
2019-03-29T00:16:33.833Z,55.47
2019-03-29T00:19:02.989Z,58.57
2019-03-29T00:21:31.452Z,61.20
2019-03-29T00:24:06.695Z,59.50
2019-03-29T00:26:29.984Z,57.07
2019-03-29T00:28:58.365Z,56.73
2019-03-29T00:31:26.768Z,58.50
2019-03-29T00:33:55.315Z,58.43
2019-03-29T00:36:23.700Z,57.70
2019-03-29T00:38:52.097Z,58.07
2019-03-29T00:41:20.488Z,56.87
2019-03-29T00:43:48.884Z,56.10
2019-03-29T00:46:17.281Z,60.30
2019-03-29T00:48:45.677Z,61.97
2019-03-29T00:51:14.112Z,62.00
2019-03-29T00:53:42.505Z,60.63
2019-03-29T00:56:10.892Z,59.07
2019-03-29T00:58:39.297Z,65.43
2019-03-29T01:01:07.701Z,64.83
2019-03-29T01:03:37.023Z,65.30
2019-03-29T01:06:06.046Z,67.40
2019-03-29T01:08:34.429Z,66.97
2019-03-29T01:11:02.821Z,66.47
2019-03-29T01:13:31.239Z,66.43
2019-03-29T01:15:59.614Z,70.40
2019-03-29T01:18:28.023Z,66.20
2019-03-29T01:20:56.473Z,67.27
2019-03-29T01:23:25.153Z,64.87
2019-03-29T01:25:53.550Z,65.47
2019-03-29T01:28:21.936Z,69.73
2019-03-29T01:30:50.416Z,64.83
2019-03-29T01:33:18.813Z,63.97
2019-03-29T01:35:47.201Z,62.77
2019-03-29T01:38:21.560Z,63.73
2019-03-29T01:40:45.725Z,65.93
2019-03-29T01:43:14.120Z,65.67
2019-03-29T01:45:42.520Z,69.07
2019-03-29T01:48:10.940Z,72.70
2019-03-29T01:50:39.343Z,74.03
2019-03-29T01:53:07.732Z,77.70
2019-03-29T01:55:36.124Z,77.87
2019-03-29T01:58:04.570Z,80.13
2019-03-29T02:00:36.105Z,80.73
2019-03-29T02:03:06.227Z,79.83
2019-03-29T02:05:34.616Z,80.37
2019-03-29T02:08:03.004Z,77.77
2019-03-29T02:10:31.417Z,73.93
2019-03-29T02:12:59.885Z,75.47
2019-03-29T02:15:28.981Z,72.83
2019-03-29T02:17:57.376Z,72.30
2019-03-29T02:20:25.777Z,71.47
2019-03-29T02:22:54.169Z,72.57
2019-03-29T02:25:22.565Z,70.27
2019-03-29T02:27:50.992Z,70.30
2019-03-29T02:30:20.149Z,70.00
2019-03-29T02:32:48.553Z,72.13
2019-03-29T02:35:16.946Z,75.33
2019-03-29T02:37:45.341Z,73.70
2019-03-29T02:40:14.602Z,71.73
2019-03-29T02:42:43.354Z,71.93
2019-03-29T02:45:12.389Z,72.63
2019-03-29T02:47:40.799Z,72.73
2019-03-29T02:50:30.395Z,71.77
2019-03-29T02:52:58.797Z,70.67
2019-03-29T02:55:27.209Z,73.53
2019-03-29T02:57:55.634Z,74.97
2019-03-29T03:00:24.166Z,71.13
2019-03-29T03:02:52.549Z,73.70
2019-03-29T03:05:20.941Z,74.30
2019-03-29T03:07:49.353Z,73.63
2019-03-29T03:10:18.777Z,77.13
2019-03-29T03:12:47.170Z,72.90
2019-03-29T03:15:16.342Z,72.13
2019-03-29T03:17:44.742Z,71.37
2019-03-29T03:20:15.867Z,70.17
2019-03-29T03:22:44.696Z,69.43
2019-03-29T03:25:14.196Z,66.47
2019-03-29T03:27:42.616Z,68.13
2019-03-29T03:30:13.362Z,69.70
2019-03-29T03:32:41.896Z,65.97
2019-03-29T03:35:12.619Z,62.30
2019-03-29T03:37:41.030Z,65.63
2019-03-29T03:40:11.144Z,61.67
2019-03-29T03:42:39.537Z,63.73
2019-03-29T03:45:09.381Z,62.27
2019-03-29T03:47:39.455Z,60.47
2019-03-29T03:50:10.246Z,63.50
2019-03-29T03:52:38.706Z,63.13
2019-03-29T03:55:07.242Z,62.47
2019-03-29T03:57:38.351Z,61.87
2019-03-29T04:00:09.754Z,61.60
2019-03-29T04:02:38.146Z,63.10
2019-03-29T04:05:07.571Z,59.37
2019-03-29T04:07:35.966Z,61.00
2019-03-29T04:10:07.190Z,61.60
2019-03-29T04:12:35.608Z,60.70
2019-03-29T04:15:05.245Z,60.07
2019-03-29T04:17:33.621Z,62.20
2019-03-29T04:20:02.021Z,58.47
2019-03-29T04:22:30.405Z,61.57
2019-03-29T04:24:58.817Z,60.73
2019-03-29T04:27:27.194Z,63.50
2019-03-29T04:29:55.627Z,66.80
2019-03-29T04:32:24.021Z,66.60
2019-03-29T04:34:52.415Z,64.37
2019-03-29T04:37:20.822Z,66.67
2019-03-29T04:40:05.793Z,68.37
2019-03-29T04:42:19.320Z,67.23
2019-03-29T04:44:47.729Z,63.40
2019-03-29T04:47:16.190Z,62.30
2019-03-29T04:49:44.589Z,60.67
2019-03-29T04:52:12.989Z,62.00
2019-03-29T04:54:41.385Z,60.73
2019-03-29T04:57:09.794Z,61.03
2019-03-29T04:59:38.191Z,64.13
2019-03-29T05:02:06.590Z,64.90
2019-03-29T05:04:34.993Z,64.83
2019-03-29T05:07:03.386Z,67.67
2019-03-29T05:09:31.791Z,67.13
2019-03-29T05:12:00.557Z,66.93
2019-03-29T05:14:28.957Z,66.30
2019-03-29T05:16:57.345Z,67.17
2019-03-29T05:19:25.749Z,65.83
2019-03-29T05:21:54.157Z,65.23
2019-03-29T05:24:22.553Z,64.80
2019-03-29T05:26:50.944Z,61.53
2019-03-29T05:29:19.361Z,60.00
2019-03-29T05:31:47.749Z,61.00
2019-03-29T05:34:16.144Z,60.40
2019-03-29T05:36:44.553Z,57.33
2019-03-29T05:39:13.014Z,53.97
2019-03-29T05:41:41.401Z,57.23
2019-03-29T05:44:09.812Z,57.03
2019-03-29T05:46:38.221Z,55.20
2019-03-29T05:49:06.612Z,56.57
2019-03-29T05:51:35.023Z,55.37
2019-03-29T05:54:03.483Z,57.17
2019-03-29T05:56:31.889Z,56.63
2019-03-29T05:59:00.696Z,54.37
2019-03-29T06:01:29.139Z,52.03
2019-03-29T06:03:57.521Z,50.13
2019-03-29T06:06:25.901Z,48.27
2019-03-29T06:08:54.520Z,48.57
2019-03-29T06:11:24.068Z,45.87
2019-03-29T06:13:52.473Z,44.73
2019-03-29T06:16:20.863Z,46.37
2019-03-29T06:18:49.256Z,46.20
2019-03-29T06:21:17.667Z,44.50
2019-03-29T06:23:46.053Z,44.13
2019-03-29T06:26:14.459Z,44.83
2019-03-29T06:28:42.848Z,45.60
2019-03-29T06:31:11.300Z,45.93
2019-03-29T06:33:39.696Z,46.13
2019-03-29T06:36:10.622Z,47.23
2019-03-29T06:38:41.461Z,47.13
2019-03-29T06:41:09.922Z,48.70
2019-03-29T06:43:38.382Z,48.73
2019-03-29T06:46:06.855Z,48.90
2019-03-29T06:48:35.249Z,50.03
2019-03-29T06:51:03.645Z,52.00
2019-03-29T06:53:32.038Z,53.07
2019-03-29T06:56:00.442Z,51.93
2019-03-29T06:58:28.837Z,50.80
2019-03-29T07:00:57.231Z,51.30
2019-03-29T07:03:25.628Z,50.40
2019-03-29T07:05:54.023Z,49.73
2019-03-29T07:08:22.430Z,49.03
2019-03-29T07:10:50.821Z,50.40
2019-03-29T07:13:19.216Z,50.73
2019-03-29T07:15:47.601Z,52.07
2019-03-29T07:18:15.993Z,49.13
2019-03-29T07:20:44.395Z,49.07
2019-03-29T07:23:12.784Z,48.30
2019-03-29T07:25:41.193Z,50.73
2019-03-29T07:28:09.577Z,52.30
2019-03-29T07:30:37.964Z,50.40
2019-03-29T07:33:06.373Z,50.43
2019-03-29T07:35:34.800Z,52.37
2019-03-29T07:38:03.224Z,49.63
2019-03-29T07:40:31.635Z,47.63
2019-03-29T07:43:00.208Z,48.70
2019-03-29T07:45:28.581Z,45.33
2019-03-29T07:47:56.989Z,47.73
2019-03-29T07:50:25.453Z,48.17
2019-03-29T07:52:53.845Z,46.30
2019-03-29T07:55:22.322Z,43.93
2019-03-29T07:57:50.714Z,45.37
2019-03-29T08:00:20.568Z,42.97
2019-03-29T08:02:49.255Z,43.03
2019-03-29T08:05:18.144Z,44.60
2019-03-29T08:07:47.316Z,43.87
2019-03-29T08:10:24.886Z,41.43
2019-03-29T08:12:45.855Z,44.90
2019-03-29T08:15:14.462Z,43.47
2019-03-29T08:17:42.863Z,58.50
2019-03-29T08:20:37.413Z,44.27
2019-03-29T08:22:41.375Z,39.07
2019-03-29T08:25:09.834Z,41.57
2019-03-29T08:27:38.260Z,38.67
2019-03-29T08:30:08.481Z,39.30
2019-03-29T08:32:36.873Z,40.03
2019-03-29T08:35:07.041Z,36.10
2019-03-29T08:37:35.433Z,65.23
2019-03-29T08:40:05.755Z,41.17
2019-03-29T08:42:34.237Z,42.40
2019-03-29T08:45:02.717Z,34.07
2019-03-29T08:47:31.142Z,44.10
2019-03-29T08:49:59.588Z,96.20
2019-03-29T08:52:28.004Z,32.67
2019-03-29T08:54:56.399Z,106.13
2019-03-29T08:57:24.802Z,123.03
2019-03-29T08:59:53.209Z,133.27
2019-03-29T09:02:24.903Z,46.17
2019-03-29T09:04:52.788Z,32.23
2019-03-29T09:07:21.181Z,62.83
2019-03-29T09:09:49.585Z,118.17
2019-03-29T09:12:18.055Z,93.33
2019-03-29T09:14:46.465Z,41.23
2019-03-29T09:17:14.948Z,87.33
2019-03-29T09:19:43.363Z,28.17
2019-03-29T09:22:11.760Z,31.87
2019-03-29T09:24:40.156Z,35.73
2019-03-29T09:27:08.555Z,29.80
2019-03-29T09:29:36.945Z,69.60
2019-03-29T09:32:05.333Z,34.80
2019-03-29T09:34:33.738Z,29.30
2019-03-29T09:37:02.137Z,25.27
2019-03-29T09:39:30.535Z,28.07
2019-03-29T09:41:58.928Z,26.10
2019-03-29T09:44:27.336Z,27.23
2019-03-29T09:46:55.727Z,23.97
2019-03-29T09:49:24.140Z,23.50
2019-03-29T09:51:52.534Z,23.00
2019-03-29T09:54:20.933Z,24.43
2019-03-29T09:56:49.328Z,25.20
2019-03-29T09:59:17.739Z,24.87
2019-03-29T10:01:46.129Z,28.77
2019-03-29T10:04:14.522Z,21.77
2019-03-29T10:06:42.970Z,36.90
2019-03-29T10:09:11.397Z,22.40
2019-03-29T10:11:39.784Z,21.53
2019-03-29T10:14:08.181Z,20.15
2019-03-29T10:16:36.590Z,20.20
2019-03-29T10:19:04.987Z,18.00
2019-03-29T10:21:34.271Z,15.45
2019-03-29T10:24:03.277Z,16.25
2019-03-29T10:26:31.672Z,17.52
2019-03-29T10:29:00.077Z,18.07
2019-03-29T10:31:32.590Z,19.62
2019-03-29T10:33:58.589Z,17.82
2019-03-29T10:36:26.983Z,17.12
2019-03-29T10:38:55.381Z,16.97
2019-03-29T10:41:23.775Z,18.32
2019-03-29T10:43:52.176Z,17.85
2019-03-29T10:46:20.576Z,17.37
2019-03-29T10:48:48.984Z,17.32
2019-03-29T10:51:17.393Z,17.23
2019-03-29T10:53:45.797Z,17.02
2019-03-29T10:56:14.181Z,16.87
2019-03-29T10:58:44.906Z,15.93
2019-03-29T11:01:12.702Z,16.37
2019-03-29T11:03:41.127Z,15.30
2019-03-29T11:06:09.538Z,16.00
2019-03-29T11:08:38.009Z,16.35
2019-03-29T11:11:06.405Z,16.15
2019-03-29T11:13:34.814Z,15.08
2019-03-29T11:16:03.277Z,15.70
2019-03-29T11:18:31.665Z,15.90
2019-03-29T11:21:00.076Z,14.60
2019-03-29T11:23:28.465Z,18.35
2019-03-29T11:25:56.859Z,14.35
2019-03-29T11:28:25.259Z,14.58
2019-03-29T11:30:53.727Z,14.40
2019-03-29T11:33:22.134Z,13.75
2019-03-29T11:35:50.594Z,14.20
2019-03-29T11:38:19.073Z,13.78
2019-03-29T11:40:47.473Z,11.28
2019-03-29T11:43:26.586Z,12.40
2019-03-29T11:45:46.016Z,15.50
2019-03-29T11:48:14.417Z,13.70
2019-03-29T11:50:42.889Z,12.85
2019-03-29T11:53:11.297Z,10.40
2019-03-29T11:55:39.701Z,10.20
2019-03-29T11:58:08.108Z,10.28
2019-03-29T12:00:38.457Z,10.48
2019-03-29T12:03:09.546Z,12.73
2019-03-29T12:05:37.806Z,10.95
2019-03-29T12:08:07.447Z,10.38
2019-03-29T12:10:35.844Z,10.38
2019-03-29T12:13:05.560Z,9.60
2019-03-29T12:15:34.043Z,9.35
2019-03-29T12:18:02.425Z,9.90
2019-03-29T12:20:31.072Z,11.40
2019-03-29T12:22:59.649Z,11.33
2019-03-29T12:25:28.044Z,11.20
2019-03-29T12:27:56.449Z,15.05
2019-03-29T12:30:31.953Z,11.70
2019-03-29T12:32:55.288Z,13.60
2019-03-29T12:35:23.681Z,9.58
2019-03-29T12:37:52.085Z,10.58
2019-03-29T12:40:20.485Z,39.60
2019-03-29T12:42:48.899Z,17.23
2019-03-29T12:45:18.253Z,47.15
2019-03-29T12:47:46.658Z,12.10
2019-03-29T12:50:15.194Z,11.93
2019-03-29T12:52:43.581Z,17.40
2019-03-29T12:55:12.057Z,46.92
2019-03-29T12:57:40.444Z,12.37
2019-03-29T13:00:10.185Z,46.95
2019-03-29T13:02:38.725Z,37.80
2019-03-29T13:05:08.994Z,71.42
2019-03-29T13:07:37.408Z,21.82
2019-03-29T13:10:08.438Z,27.82
2019-03-29T13:12:36.888Z,29.87
2019-03-29T13:15:08.593Z,10.70
2019-03-29T13:17:37.848Z,27.85
2019-03-29T13:20:07.989Z,11.08
2019-03-29T13:22:36.452Z,21.40
2019-03-29T13:25:07.595Z,12.28
2019-03-29T13:27:36.343Z,11.80
2019-03-29T13:30:07.853Z,11.40
2019-03-29T13:32:36.315Z,10.63
2019-03-29T13:35:07.555Z,11.28
2019-03-29T13:37:35.965Z,11.10
2019-03-29T13:40:06.765Z,11.22
2019-03-29T13:42:35.184Z,11.08
2019-03-29T13:45:04.940Z,11.63
2019-03-29T13:47:54.074Z,12.95
2019-03-29T13:50:22.468Z,12.20
2019-03-29T13:52:50.865Z,12.58
2019-03-29T13:55:19.341Z,13.03
2019-03-29T13:57:47.761Z,12.13
2019-03-29T14:00:18.996Z,12.40
2019-03-29T14:02:47.443Z,12.15
2019-03-29T14:05:16.432Z,11.80
2019-03-29T14:07:44.801Z,10.18
2019-03-29T14:10:14.171Z,10.80
2019-03-29T14:12:42.573Z,9.15
2019-03-29T14:15:13.798Z,10.18
2019-03-29T14:17:43.081Z,9.48
2019-03-29T14:20:12.325Z,8.80
2019-03-29T14:22:40.716Z,8.70
2019-03-29T14:25:09.376Z,8.95
2019-03-29T14:27:37.786Z,9.45
2019-03-29T14:30:08.132Z,9.03
2019-03-29T14:32:36.592Z,9.58
2019-03-29T14:35:09.158Z,9.50
2019-03-29T14:37:37.563Z,9.73
2019-03-29T14:40:08.885Z,8.53
2019-03-29T14:42:37.291Z,9.65
2019-03-29T14:45:07.617Z,8.18
2019-03-29T14:47:43.298Z,8.70
2019-03-29T14:50:08.140Z,8.80
2019-03-29T14:52:37.415Z,8.28
2019-03-29T14:55:07.385Z,8.75
2019-03-29T14:57:35.754Z,8.98
2019-03-29T15:00:07.230Z,10.32
2019-03-29T15:02:35.801Z,9.13
2019-03-29T15:05:07.489Z,8.53
2019-03-29T15:07:36.858Z,8.43
2019-03-29T15:10:08.337Z,8.70
2019-03-29T15:12:36.763Z,9.10
2019-03-29T15:15:07.271Z,9.83
2019-03-29T15:17:35.901Z,9.75
2019-03-29T15:20:06.905Z,9.85
2019-03-29T15:22:35.297Z,9.50
2019-03-29T15:25:05.109Z,8.65
2019-03-29T15:27:33.525Z,8.70
2019-03-29T15:30:01.933Z,9.58
2019-03-29T15:32:30.328Z,8.58
2019-03-29T15:34:58.752Z,8.83
2019-03-29T15:37:27.158Z,8.93
2019-03-29T15:39:58.519Z,8.83
2019-03-29T15:42:27.281Z,8.20
2019-03-29T15:44:55.674Z,8.30
2019-03-29T15:47:25.507Z,9.60
2019-03-29T15:49:56.355Z,9.13
2019-03-29T15:52:24.025Z,9.95
2019-03-29T15:54:52.421Z,8.40
2019-03-29T15:57:20.831Z,8.75
2019-03-29T15:59:49.237Z,8.55
2019-03-29T16:02:17.648Z,8.37
2019-03-29T16:04:46.121Z,10.53
2019-03-29T16:07:14.545Z,8.75
2019-03-29T16:09:42.962Z,8.80
2019-03-29T16:12:11.354Z,8.88
2019-03-29T16:14:39.745Z,7.78
2019-03-29T16:17:08.156Z,8.00
2019-03-29T16:19:36.553Z,8.88
2019-03-29T16:22:06.207Z,8.35
2019-03-29T16:24:34.757Z,8.07
2019-03-29T16:27:03.169Z,7.40
2019-03-29T16:29:31.553Z,7.90
2019-03-29T16:31:59.936Z,7.47
2019-03-29T16:34:28.333Z,7.97
2019-03-29T16:36:56.720Z,7.83
2019-03-29T16:39:25.133Z,7.67
2019-03-29T16:41:54.280Z,8.13
2019-03-29T16:44:22.745Z,8.23
2019-03-29T16:46:51.216Z,8.07
2019-03-29T16:49:19.609Z,7.53
2019-03-29T16:51:48.005Z,7.87
2019-03-29T16:54:16.481Z,8.33
2019-03-29T16:56:44.873Z,9.07
2019-03-29T16:59:13.434Z,8.57
2019-03-29T17:01:41.827Z,7.47
2019-03-29T17:04:10.212Z,7.93
2019-03-29T17:06:38.609Z,7.40
2019-03-29T17:09:08.262Z,6.97
2019-03-29T17:11:36.662Z,7.53
2019-03-29T17:14:05.127Z,6.90
2019-03-29T17:16:33.600Z,7.53
2019-03-29T17:19:01.990Z,7.43
2019-03-29T17:21:30.385Z,7.17
2019-03-29T17:23:58.778Z,7.03
2019-03-29T17:26:27.309Z,7.33
2019-03-29T17:28:55.777Z,5.80
2019-03-29T17:31:24.168Z,7.40
2019-03-29T17:33:52.572Z,7.10
2019-03-29T17:36:20.972Z,7.77
2019-03-29T17:38:49.416Z,8.10
2019-03-29T17:41:17.971Z,7.80
2019-03-29T17:43:46.360Z,8.73
2019-03-29T17:46:16.615Z,8.97
2019-03-29T17:48:44.864Z,9.40
2019-03-29T17:51:13.280Z,8.30
2019-03-29T17:53:41.672Z,10.00
2019-03-29T17:56:10.203Z,10.67
2019-03-29T17:58:38.606Z,8.90
2019-03-29T18:01:06.984Z,9.40
2019-03-29T18:03:35.377Z,10.17
2019-03-29T18:06:03.930Z,9.67
2019-03-29T18:08:32.309Z,9.73
2019-03-29T18:11:00.706Z,9.70
2019-03-29T18:13:29.093Z,10.30
2019-03-29T18:15:57.488Z,9.13
2019-03-29T18:18:25.885Z,9.53
2019-03-29T18:20:54.297Z,9.13
2019-03-29T18:23:24.943Z,9.00
2019-03-29T18:25:52.808Z,10.77
2019-03-29T18:28:21.205Z,12.27
2019-03-29T18:30:49.628Z,11.67
2019-03-29T18:33:19.389Z,11.73
2019-03-29T18:35:47.781Z,10.87
2019-03-29T18:38:16.185Z,10.10
2019-03-29T18:40:44.621Z,10.37
2019-03-29T18:43:13.013Z,9.40
2019-03-29T18:45:41.935Z,9.33
2019-03-29T18:48:11.009Z,8.80
2019-03-29T18:50:39.412Z,9.60
2019-03-29T18:53:07.808Z,8.67
2019-03-29T18:55:36.220Z,9.10
2019-03-29T18:58:06.038Z,8.73
2019-03-29T19:00:36.458Z,10.13
2019-03-29T19:03:05.736Z,8.77
2019-03-29T19:05:35.658Z,9.30
2019-03-29T19:08:05.102Z,8.90
2019-03-29T19:10:33.515Z,8.63
2019-03-29T19:13:01.901Z,8.57
2019-03-29T19:15:31.507Z,8.50
2019-03-29T19:18:00.073Z,8.60
2019-03-29T19:20:28.535Z,8.60
2019-03-29T19:22:56.942Z,8.93
2019-03-29T19:25:25.412Z,9.27
2019-03-29T19:27:53.817Z,10.20
2019-03-29T19:30:23.940Z,10.77
2019-03-29T19:32:52.345Z,11.03
2019-03-29T19:35:20.734Z,9.47
2019-03-29T19:37:49.120Z,9.80
2019-03-29T19:40:17.588Z,9.63
2019-03-29T19:42:45.979Z,10.10
2019-03-29T19:45:14.877Z,12.17
2019-03-29T19:47:43.272Z,11.40
2019-03-29T19:50:13.000Z,11.00
2019-03-29T19:52:41.413Z,10.63
2019-03-29T19:55:10.746Z,10.43
2019-03-29T19:57:39.132Z,10.03
2019-03-29T20:00:13.421Z,10.27
2019-03-29T20:02:41.816Z,9.77
2019-03-29T20:05:15.876Z,12.60
2019-03-29T20:07:44.291Z,13.53
2019-03-29T20:10:12.740Z,12.93
2019-03-29T20:12:41.136Z,11.17
2019-03-29T20:15:09.670Z,10.47
2019-03-29T20:17:38.062Z,10.13
2019-03-29T20:20:06.602Z,10.17
2019-03-29T20:22:34.989Z,10.53
2019-03-29T20:25:04.642Z,9.87
2019-03-29T20:27:33.047Z,10.73
2019-03-29T20:30:01.444Z,10.20
2019-03-29T20:32:29.828Z,11.97
2019-03-29T20:34:58.220Z,11.83
2019-03-29T20:37:27.817Z,10.00
2019-03-29T20:39:56.200Z,11.97
2019-03-29T20:42:24.989Z,11.57
2019-03-29T20:44:54.072Z,16.97
2019-03-29T20:47:22.465Z,17.00
2019-03-29T20:49:50.865Z,11.83
2019-03-29T20:52:19.257Z,10.90
2019-03-29T20:54:47.653Z,11.37
2019-03-29T20:57:16.066Z,9.80
2019-03-29T20:59:44.459Z,10.30
2019-03-29T21:02:12.848Z,10.07
2019-03-29T21:04:41.241Z,9.47
2019-03-29T21:07:09.641Z,9.97
2019-03-29T21:09:38.103Z,9.30
2019-03-29T21:12:06.486Z,9.87
2019-03-29T21:14:34.957Z,9.00
2019-03-29T21:17:03.382Z,9.27
2019-03-29T21:19:31.761Z,9.60
2019-03-29T21:22:00.148Z,8.80
2019-03-29T21:24:28.549Z,9.53
2019-03-29T21:26:56.929Z,9.60
2019-03-29T21:29:25.329Z,9.43
2019-03-29T21:31:53.776Z,8.87
2019-03-29T21:34:22.185Z,9.70
2019-03-29T21:36:50.583Z,10.53
2019-03-29T21:39:18.975Z,10.17
2019-03-29T21:41:47.467Z,9.60
2019-03-29T21:44:15.840Z,9.73
2019-03-29T21:46:44.244Z,10.07
2019-03-29T21:49:12.641Z,9.87
2019-03-29T21:51:41.030Z,9.87
2019-03-29T21:54:09.441Z,9.53
2019-03-29T21:56:37.839Z,9.70
2019-03-29T21:59:06.231Z,9.83
2019-03-29T22:01:34.617Z,9.33
2019-03-29T22:04:03.014Z,9.80
2019-03-29T22:06:31.396Z,9.77
2019-03-29T22:08:59.792Z,10.00
2019-03-29T22:11:28.176Z,9.40
2019-03-29T22:13:56.573Z,9.50
2019-03-29T22:16:24.976Z,9.27
2019-03-29T22:18:53.373Z,9.97
2019-03-29T22:21:21.861Z,10.03
2019-03-29T22:23:50.234Z,10.00
2019-03-29T22:26:18.616Z,9.30
2019-03-29T22:28:47.183Z,10.93
2019-03-29T22:31:16.123Z,10.13
2019-03-29T22:33:44.500Z,9.63
2019-03-29T22:36:12.881Z,10.93
2019-03-29T22:38:41.305Z,10.83
2019-03-29T22:41:09.685Z,9.87
2019-03-29T22:43:38.068Z,9.90
2019-03-29T22:46:06.481Z,10.73
2019-03-29T22:48:34.864Z,10.83
2019-03-29T22:51:03.287Z,9.90
2019-03-29T22:53:31.722Z,10.33
2019-03-29T22:56:00.106Z,9.27
2019-03-29T22:58:28.730Z,10.47
2019-03-29T23:00:59.489Z,9.60
2019-03-29T23:03:27.892Z,9.13
2019-03-29T23:05:56.288Z,9.50
2019-03-29T23:08:24.676Z,9.27
2019-03-29T23:10:53.055Z,9.40
2019-03-29T23:13:21.641Z,9.90
2019-03-29T23:15:50.021Z,9.37
2019-03-29T23:18:18.410Z,9.33
2019-03-29T23:20:47.161Z,8.43
2019-03-29T23:23:16.076Z,9.20
2019-03-29T23:25:44.456Z,9.07
2019-03-29T23:28:12.844Z,9.33
2019-03-29T23:30:41.230Z,9.20
2019-03-29T23:33:09.676Z,10.30
2019-03-29T23:35:38.060Z,10.00
2019-03-29T23:38:06.456Z,10.03
2019-03-29T23:40:34.900Z,10.27
2019-03-29T23:43:03.311Z,10.03
2019-03-29T23:45:31.725Z,10.07
2019-03-29T23:48:00.121Z,10.10
2019-03-29T23:50:28.577Z,10.50
2019-03-29T23:52:56.993Z,10.07
2019-03-29T23:55:25.376Z,10.27
2019-03-29T23:57:53.820Z,10.57
